Diomede, Alaska
Current Conditions -  °F | °C
As of 11:58 PM on Friday 19 Dec 2014 (Local Time) from PATE Reporting Station
Clear Clear  
Wind Chill: -2°   Ceiling: Unl
Heat Index:   Visibility: 10mi
Dew Point:   Wind: 6mph
Humidity: 92%   Direction: 10°N
Pressure: 29.4"   Gusts: NA
Location:  65.1617°N, 164.975°W
Report Text: PATE 200858Z AUTO 01005KT 10SM CLR M13/M14 A2940 RMK AO2 SLP968 T11331144 410561139 53001 FZRANO
Loading
Personal Weather Stations






























Interactive Weather Map New forecast layout! Learn more

10-Day Weather Forecast

Advertisements
Track Severe Weather on mobile